Pulpca — PHMT — position and weather

sailwx.info

Track history (hours):
 
Tides and Currents Weather Stations Pressure Air Temp Water Temp Dewpoint Dewpoint Depression Visibility Wind Speed Wind Dir Waves Ship Positions

Pulpca

Last reported at 2016-Sep-01 04:31 UTC. Time now 2016-Sep-01 05:39 UTC.
Position N 51°16' E 004°15'.

Length 205 m; draft 6.6 m.

Type: Ship (hazmat cat A). MMSI: 245097000.

Date/timePositionNaut miles runAvg speedWind from/ knotsBaromVisibWave heightAir tempDewpointWater temp
2016-Sep-01 04:31N 51°16' E 004°15'0 0.0
2016-Sep-01 03:31N 51°16' E 004°15'0 0.0
2016-Sep-01 02:31N 51°16' E 004°15'0 0.0
2016-Sep-01 01:31N 51°16' E 004°15'0 0.0
2016-Sep-01 00:31N 51°16' E 004°15'0 0.0
2016-Aug-31 23:28N 51°16' E 004°15'0 0.0
2016-Aug-31 22:28N 51°16' E 004°15'0 0.0
2016-Aug-31 21:31N 51°16' E 004°15'0 0.0
2016-Aug-31 20:28N 51°16' E 004°15'0 0.0
2016-Aug-31 19:31N 51°16' E 004°15'0 0.0
2016-Aug-31 18:31N 51°16' E 004°15'0 0.0
2016-Aug-31 17:31N 51°16' E 004°15'0 0.0
2016-Aug-31 16:31N 51°16' E 004°15'0 0.0
2016-Aug-31 15:28N 51°16' E 004°15'0 0.0
2016-Aug-31 14:31N 51°16' E 004°15'0 0.0
2016-Aug-31 13:31N 51°16' E 004°15'0 0.0
2016-Aug-31 12:31N 51°16' E 004°15'0 0.0
2016-Aug-31 11:31N 51°16' E 004°15'0 0.0
2016-Aug-31 10:31N 51°16' E 004°15'0 0.0
2016-Aug-31 09:31N 51°16' E 004°15'0 0.0
2016-Aug-31 08:31N 51°16' E 004°15'0 0.0
2016-Aug-31 07:31N 51°16' E 004°15'0 0.0
2016-Aug-31 06:28N 51°16' E 004°15'0 0.0
2016-Aug-31 05:31N 51°16' E 004°15'0 0.0
2016-Aug-31 04:31N 51°16' E 004°15'0 0.0
2016-Aug-31 03:28N 51°16' E 004°15'0 0.0
2016-Aug-31 02:31N 51°16' E 004°15'0 0.0
2016-Aug-31 01:31N 51°16' E 004°15'0 0.0
2016-Aug-31 00:31N 51°16' E 004°15'0 0.0
2016-Aug-30 23:31N 51°16' E 004°15'0 0.0
2016-Aug-30 22:31N 51°16' E 004°15'0 0.0
2016-Aug-30 21:28N 51°16' E 004°15'0 0.0
2016-Aug-30 20:34N 51°16' E 004°15'1 0.8
2016-Aug-30 19:33N 51°15' E 004°14'0 0.0
2016-Aug-30 18:33N 51°15' E 004°14'0 0.0
2016-Aug-30 17:33N 51°15' E 004°14'0 0.0
2016-Aug-30 16:33N 51°15' E 004°14'0 0.0
2016-Aug-30 15:33N 51°15' E 004°14'0 0.0
2016-Aug-30 14:27N 51°15' E 004°14'0 0.0
2016-Aug-30 13:30N 51°15' E 004°14'1 0.8
2016-Aug-30 12:33N 51°16' E 004°14'1 1.0
2016-Aug-30 11:33N 51°17' E 004°15'4 4.2
2016-Aug-30 10:34N 51°21' E 004°15'1110.7
2016-Aug-30 09:34N 51°26' E 004°00'1111.1
2016-Aug-30 08:34N 51°24' E 003°43'1313.5
2016-Aug-30 07:34N 51°24' E 003°21'1313.3
2016-Aug-30 06:34N 51°27' E 002°60'1818.2
2016-Aug-30 05:34N 51°42' E 003°15'10 9.5
2016-Aug-30 04:33N 51°47' E 003°02'3 3.2
2016-Aug-30 03:32N 51°48' E 003°07'7 7.4
2016-Aug-30 02:33N 51°52' E 003°17'5417.8
2016-Aug-29 23:32N 52°44' E 003°40'1918.5
2016-Aug-29 22:32N 52°58' E 003°60'7919.7
2016-Aug-29 18:32N 54°08' E 005°01'19219.2
2016-Aug-29 08:32N 56°51' E 008°00'1918.6
2016-Aug-29 07:32N 57°06' E 008°21'8219.0
2016-Aug-29 03:11N 57°47' E 010°33'1218.7
2016-Aug-29 02:33N 57°44' E 010°54'2020.0
2016-Aug-29 01:33N 57°30' E 011°21'2020.1
2016-Aug-29 00:34N 57°12' E 011°36'2020.4
2016-Aug-28 23:33N 56°53' E 011°50'1919.0
2016-Aug-28 22:33N 56°34' E 011°42'4220.3
2016-Aug-28 20:30N 55°59' E 011°02'3618.3
2016-Aug-28 18:31N 55°23' E 011°02'1818.3
2016-Aug-28 17:33N 55°05' E 010°59'2020.5
2016-Aug-28 16:33N 54°46' E 010°48'1716.8
2016-Aug-28 15:34N 54°36' E 011°12'2020.4
2016-Aug-28 14:33N 54°28' E 011°44'1817.6
2016-Aug-28 13:33N 54°31' E 012°13'1919.2
2016-Aug-28 12:33N 54°44' E 012°37'2019.8
2016-Aug-28 11:34N 54°53' E 013°08'2120.6
2016-Aug-28 10:33N 55°00' E 013°41'2019.9
2016-Aug-28 09:33N 55°10' E 014°11'2020.0
2016-Aug-28 08:33N 55°25' E 014°35'2020.1
2016-Aug-28 07:33N 55°36' E 015°04'9 9.3
2016-Aug-28 06:34N 55°40' E 015°19'1919.1
2016-Aug-28 05:34N 55°50' E 015°48'2020.0
2016-Aug-28 04:33N 56°00' E 016°19'2020.3
2016-Aug-28 03:33N 56°11' E 016°50'2320.0
2016-Aug-28 02:23N 56°26' E 017°22'4220.0
2016-Aug-28 00:18N 56°51' E 018°23'1820.0
2016-Aug-27 23:24N 57°05' E 018°44'1820.0
2016-Aug-27 22:30N 57°20' E 019°04'15719.5
2016-Aug-27 14:26N 59°22' E 022°12'2518.7
2016-Aug-27 13:06N 59°37' E 022°51'1016.0
2016-Aug-27 12:28N 59°46' E 023°01'4 0.4
2016-Aug-27 02:32N 59°49' E 022°56'1313.2
2016-Aug-27 01:33N 59°42' E 023°18'1615.6
2016-Aug-27 00:34N 59°44' E 023°48'3316.3
2016-Aug-26 22:32N 59°51' E 024°53'2016.2
2016-Aug-26 21:19N 59°54' E 025°31'1216.0
2016-Aug-26 20:33N 59°58' E 025°54'1616.2
2016-Aug-26 19:33N 60°08' E 026°20'1616.1
2016-Aug-26 18:34N 60°21' E 026°39'1212.0
2016-Aug-26 17:33N 60°29' E 026°57'0 0.0
2016-Aug-26 16:32N 60°29' E 026°57'0 0.0
2016-Aug-26 15:32N 60°29' E 026°57'0 0.0
2016-Aug-26 14:32N 60°29' E 026°57'0 0.0
2016-Aug-26 13:32N 60°29' E 026°57'0 0.0
2016-Aug-26 12:32N 60°29' E 026°57'0 0.0
2016-Aug-26 11:32N 60°29' E 026°57'0 0.0
2016-Aug-26 10:32N 60°29' E 026°57'0 0.0
2016-Aug-26 09:32N 60°29' E 026°57'0 0.0
2016-Aug-26 08:32N 60°29' E 026°57'0 0.0
2016-Aug-26 07:32N 60°29' E 026°57'0 0.0
2016-Aug-26 06:32N 60°29' E 026°57'0 0.0
2016-Aug-26 04:32N 60°29' E 026°57'0 0.0
2016-Aug-26 03:32N 60°29' E 026°57'0 0.0
2016-Aug-26 02:32N 60°29' E 026°57'0 0.0
2016-Aug-26 01:32N 60°29' E 026°57'0 0.0
2016-Aug-26 00:32N 60°29' E 026°57'0 0.0
2016-Aug-25 23:32N 60°29' E 026°57'0 0.0
2016-Aug-25 22:32N 60°29' E 026°57'0 0.0
2016-Aug-25 21:32N 60°29' E 026°57'0 0.0
2016-Aug-25 20:32N 60°29' E 026°57'0 0.0
2016-Aug-25 19:32N 60°29' E 026°57'0 0.0
2016-Aug-25 18:32N 60°29' E 026°57'0 0.0
2016-Aug-25 17:32N 60°29' E 026°57'0 0.0
2016-Aug-25 16:32N 60°29' E 026°57'0 0.0
2016-Aug-25 15:32N 60°29' E 026°57'0 0.0
2016-Aug-25 14:32N 60°29' E 026°57'0 0.0
2016-Aug-25 13:32N 60°29' E 026°57'0 0.0
2016-Aug-25 12:32N 60°29' E 026°57'0 0.0
2016-Aug-25 11:32N 60°29' E 026°57'0 0.0
2016-Aug-25 10:32N 60°29' E 026°57'0 0.0
2016-Aug-25 09:32N 60°29' E 026°57'0 0.0
2016-Aug-25 08:32N 60°29' E 026°57'0 0.0
2016-Aug-25 07:32N 60°29' E 026°57'0 0.0
2016-Aug-25 06:32N 60°29' E 026°57'0 0.0
2016-Aug-25 04:32N 60°29' E 026°57'0 0.0
2016-Aug-25 03:32N 60°29' E 026°57'0 0.0
2016-Aug-25 02:32N 60°29' E 026°57'0 0.0
2016-Aug-25 01:32N 60°29' E 026°57'0 0.0
2016-Aug-25 00:32N 60°29' E 026°57'0 0.0
2016-Aug-24 23:32N 60°29' E 026°57'0 0.0
2016-Aug-24 22:32N 60°29' E 026°57'0 0.0
2016-Aug-24 21:32N 60°29' E 026°57'0 0.0
2016-Aug-24 20:32N 60°29' E 026°57'0 0.0
2016-Aug-24 19:32N 60°29' E 026°57'4 3.9
2016-Aug-24 18:34N 60°25' E 026°56'1919.1
2016-Aug-24 17:33N 60°14' E 026°25'4 3.6
2016-Aug-24 16:32N 60°11' E 026°20'0 0.0
2016-Aug-24 15:32N 60°11' E 026°20'0 0.0
2016-Aug-24 14:32N 60°11' E 026°20'0 0.0
2016-Aug-24 13:29N 60°11' E 026°20'0 0.0
2016-Aug-24 12:32N 60°11' E 026°20'0 0.0
2016-Aug-24 11:32N 60°11' E 026°20'0 0.0
2016-Aug-24 10:32N 60°11' E 026°20'0 0.0
2016-Aug-24 09:32N 60°11' E 026°20'0 0.0
2016-Aug-24 08:32N 60°11' E 026°20'0 0.0
2016-Aug-24 07:32N 60°11' E 026°20'0 0.0
2016-Aug-24 06:32N 60°11' E 026°20'0 0.0
2016-Aug-24 04:32N 60°11' E 026°20'0 0.0
2016-Aug-24 03:32N 60°11' E 026°20'0 0.0
2016-Aug-24 02:32N 60°11' E 026°20'0 0.0
2016-Aug-24 01:34N 60°11' E 026°20'0 0.0
2016-Aug-24 00:34N 60°11' E 026°20'0 0.0
2016-Aug-23 23:33N 60°11' E 026°20'0 0.0
2016-Aug-23 22:33N 60°11' E 026°20'0 0.0
2016-Aug-23 21:34N 60°11' E 026°20'0 0.0
2016-Aug-23 20:34N 60°11' E 026°20'0 0.0
2016-Aug-23 19:33N 60°11' E 026°20'0 0.0
2016-Aug-23 18:33N 60°11' E 026°20'0 0.2
2016-Aug-23 17:34N 60°11' E 026°21'1010.4
2016-Aug-23 16:33N 60°03' E 026°32'1716.7
2016-Aug-23 15:33N 59°60' E 027°05'1916.7
2016-Aug-23 14:25N 60°10' E 027°37'1615.2
2016-Aug-23 13:19N 60°09' E 028°10'1215.9
2016-Aug-23 12:34N 60°04' E 028°32'1616.3
2016-Aug-23 11:33N 60°03' E 029°05'1613.2
2016-Aug-23 10:20N 60°00' E 029°37'911.2
2016-Aug-23 09:33N 59°57' E 029°53'1010.2
2016-Aug-23 08:33N 59°53' E 030°12'1 0.9
2016-Aug-23 07:33N 59°54' E 030°14'0 0.0
2016-Aug-23 06:33N 59°54' E 030°14'0 0.0
2016-Aug-23 05:33N 59°54' E 030°14'0 0.0
2016-Aug-23 04:33N 59°54' E 030°14'0 0.0
2016-Aug-23 03:33N 59°54' E 030°14'0 0.0
2016-Aug-23 02:33N 59°54' E 030°14'0 0.0
2016-Aug-23 01:33N 59°54' E 030°14'0 0.0
2016-Aug-23 00:33N 59°54' E 030°14'0 0.0
2016-Aug-22 23:33N 59°54' E 030°14'0 0.0
2016-Aug-22 22:33N 59°54' E 030°14'0 0.0
2016-Aug-22 21:33N 59°54' E 030°14'0 0.0
2016-Aug-22 20:33N 59°54' E 030°14'0 0.0
2016-Aug-22 19:30N 59°54' E 030°14'0 0.0
2016-Aug-22 18:33N 59°54' E 030°14'0 0.0
2016-Aug-22 17:24N 59°54' E 030°14'0 0.0
2016-Aug-22 16:33N 59°54' E 030°14'0 0.0
2016-Aug-22 15:33N 59°54' E 030°14'3 2.7
2016-Aug-22 14:33N 59°54' E 030°08'1010.1
2016-Aug-22 13:33N 59°57' E 029°50'1211.3
2016-Aug-22 12:32N 60°01' E 029°28'8 7.8
2016-Aug-22 11:32N 60°01' E 029°12'7 7.0
2016-Aug-22 10:33N 60°02' E 028°59'10 9.9
2016-Aug-22 09:33N 60°02' E 028°39'1010.1
2016-Aug-22 08:33N 60°05' E 028°20'1313.4
2016-Aug-22 07:33N 60°10' E 027°54'1312.8
2016-Aug-22 06:33N 60°06' E 027°30'1414.3
2016-Aug-22 05:33N 59°58' E 027°06'1413.7
2016-Aug-22 04:33N 59°60' E 026°38'  
Track history (hours):
 
Tides and Currents Weather Stations Pressure Air Temp Water Temp Dewpoint Dewpoint Depression Visibility Wind Speed Wind Dir Waves Ship Positions

Pulpca

Last reported at 2016-Sep-01 04:31 UTC. Time now 2016-Sep-01 05:39 UTC.
Position N 51°16' E 004°15'.

Length 205 m; draft 6.6 m.

Type: Ship (hazmat cat A). MMSI: 245097000.

Date/timePositionNaut miles runAvg speedWind from/ knotsBaromVisibWave heightAir tempDewpointWater temp
2016-Sep-01 04:31N 51°16' E 004°15'0 0.0
2016-Sep-01 03:31N 51°16' E 004°15'0 0.0
2016-Sep-01 02:31N 51°16' E 004°15'0 0.0
2016-Sep-01 01:31N 51°16' E 004°15'0 0.0
2016-Sep-01 00:31N 51°16' E 004°15'0 0.0
2016-Aug-31 23:28N 51°16' E 004°15'0 0.0
2016-Aug-31 22:28N 51°16' E 004°15'0 0.0
2016-Aug-31 21:31N 51°16' E 004°15'0 0.0
2016-Aug-31 20:28N 51°16' E 004°15'0 0.0
2016-Aug-31 19:31N 51°16' E 004°15'0 0.0
2016-Aug-31 18:31N 51°16' E 004°15'0 0.0
2016-Aug-31 17:31N 51°16' E 004°15'0 0.0
2016-Aug-31 16:31N 51°16' E 004°15'0 0.0
2016-Aug-31 15:28N 51°16' E 004°15'0 0.0
2016-Aug-31 14:31N 51°16' E 004°15'0 0.0
2016-Aug-31 13:31N 51°16' E 004°15'0 0.0
2016-Aug-31 12:31N 51°16' E 004°15'0 0.0
2016-Aug-31 11:31N 51°16' E 004°15'0 0.0
2016-Aug-31 10:31N 51°16' E 004°15'0 0.0
2016-Aug-31 09:31N 51°16' E 004°15'0 0.0
2016-Aug-31 08:31N 51°16' E 004°15'0 0.0
2016-Aug-31 07:31N 51°16' E 004°15'0 0.0
2016-Aug-31 06:28N 51°16' E 004°15'0 0.0
2016-Aug-31 05:31N 51°16' E 004°15'0 0.0
2016-Aug-31 04:31N 51°16' E 004°15'0 0.0
2016-Aug-31 03:28N 51°16' E 004°15'0 0.0
2016-Aug-31 02:31N 51°16' E 004°15'0 0.0
2016-Aug-31 01:31N 51°16' E 004°15'0 0.0
2016-Aug-31 00:31N 51°16' E 004°15'0 0.0
2016-Aug-30 23:31N 51°16' E 004°15'0 0.0
2016-Aug-30 22:31N 51°16' E 004°15'0 0.0
2016-Aug-30 21:28N 51°16' E 004°15'0 0.0
2016-Aug-30 20:34N 51°16' E 004°15'1 0.8
2016-Aug-30 19:33N 51°15' E 004°14'0 0.0
2016-Aug-30 18:33N 51°15' E 004°14'0 0.0
2016-Aug-30 17:33N 51°15' E 004°14'0 0.0
2016-Aug-30 16:33N 51°15' E 004°14'0 0.0
2016-Aug-30 15:33N 51°15' E 004°14'0 0.0
2016-Aug-30 14:27N 51°15' E 004°14'0 0.0
2016-Aug-30 13:30N 51°15' E 004°14'1 0.8
2016-Aug-30 12:33N 51°16' E 004°14'1 1.0
2016-Aug-30 11:33N 51°17' E 004°15'4 4.2
2016-Aug-30 10:34N 51°21' E 004°15'1110.7
2016-Aug-30 09:34N 51°26' E 004°00'1111.1
2016-Aug-30 08:34N 51°24' E 003°43'1313.5
2016-Aug-30 07:34N 51°24' E 003°21'1313.3
2016-Aug-30 06:34N 51°27' E 002°60'1818.2
2016-Aug-30 05:34N 51°42' E 003°15'10 9.5
2016-Aug-30 04:33N 51°47' E 003°02'3 3.2
2016-Aug-30 03:32N 51°48' E 003°07'7 7.4
2016-Aug-30 02:33N 51°52' E 003°17'5417.8
2016-Aug-29 23:32N 52°44' E 003°40'1918.5
2016-Aug-29 22:32N 52°58' E 003°60'7919.7
2016-Aug-29 18:32N 54°08' E 005°01'19219.2
2016-Aug-29 08:32N 56°51' E 008°00'1918.6
2016-Aug-29 07:32N 57°06' E 008°21'8219.0
2016-Aug-29 03:11N 57°47' E 010°33'1218.7
2016-Aug-29 02:33N 57°44' E 010°54'2020.0
2016-Aug-29 01:33N 57°30' E 011°21'2020.1
2016-Aug-29 00:34N 57°12' E 011°36'2020.4
2016-Aug-28 23:33N 56°53' E 011°50'1919.0
2016-Aug-28 22:33N 56°34' E 011°42'4220.3
2016-Aug-28 20:30N 55°59' E 011°02'3618.3
2016-Aug-28 18:31N 55°23' E 011°02'1818.3
2016-Aug-28 17:33N 55°05' E 010°59'2020.5
2016-Aug-28 16:33N 54°46' E 010°48'1716.8
2016-Aug-28 15:34N 54°36' E 011°12'2020.4
2016-Aug-28 14:33N 54°28' E 011°44'1817.6
2016-Aug-28 13:33N 54°31' E 012°13'1919.2
2016-Aug-28 12:33N 54°44' E 012°37'2019.8
2016-Aug-28 11:34N 54°53' E 013°08'2120.6
2016-Aug-28 10:33N 55°00' E 013°41'2019.9
2016-Aug-28 09:33N 55°10' E 014°11'2020.0
2016-Aug-28 08:33N 55°25' E 014°35'2020.1
2016-Aug-28 07:33N 55°36' E 015°04'9 9.3
2016-Aug-28 06:34N 55°40' E 015°19'1919.1
2016-Aug-28 05:34N 55°50' E 015°48'2020.0
2016-Aug-28 04:33N 56°00' E 016°19'2020.3
2016-Aug-28 03:33N 56°11' E 016°50'2320.0
2016-Aug-28 02:23N 56°26' E 017°22'4220.0
2016-Aug-28 00:18N 56°51' E 018°23'1820.0
2016-Aug-27 23:24N 57°05' E 018°44'1820.0
2016-Aug-27 22:30N 57°20' E 019°04'15719.5
2016-Aug-27 14:26N 59°22' E 022°12'2518.7
2016-Aug-27 13:06N 59°37' E 022°51'1016.0
2016-Aug-27 12:28N 59°46' E 023°01'4 0.4
2016-Aug-27 02:32N 59°49' E 022°56'1313.2
2016-Aug-27 01:33N 59°42' E 023°18'1615.6
2016-Aug-27 00:34N 59°44' E 023°48'3316.3
2016-Aug-26 22:32N 59°51' E 024°53'2016.2
2016-Aug-26 21:19N 59°54' E 025°31'1216.0
2016-Aug-26 20:33N 59°58' E 025°54'1616.2
2016-Aug-26 19:33N 60°08' E 026°20'1616.1
2016-Aug-26 18:34N 60°21' E 026°39'1212.0
2016-Aug-26 17:33N 60°29' E 026°57'0 0.0
2016-Aug-26 16:32N 60°29' E 026°57'0 0.0
2016-Aug-26 15:32N 60°29' E 026°57'0 0.0
2016-Aug-26 14:32N 60°29' E 026°57'0 0.0
2016-Aug-26 13:32N 60°29' E 026°57'0 0.0
2016-Aug-26 12:32N 60°29' E 026°57'0 0.0
2016-Aug-26 11:32N 60°29' E 026°57'0 0.0
2016-Aug-26 10:32N 60°29' E 026°57'0 0.0
2016-Aug-26 09:32N 60°29' E 026°57'0 0.0
2016-Aug-26 08:32N 60°29' E 026°57'0 0.0
2016-Aug-26 07:32N 60°29' E 026°57'0 0.0
2016-Aug-26 06:32N 60°29' E 026°57'0 0.0
2016-Aug-26 04:32N 60°29' E 026°57'0 0.0
2016-Aug-26 03:32N 60°29' E 026°57'0 0.0
2016-Aug-26 02:32N 60°29' E 026°57'0 0.0
2016-Aug-26 01:32N 60°29' E 026°57'0 0.0
2016-Aug-26 00:32N 60°29' E 026°57'0 0.0
2016-Aug-25 23:32N 60°29' E 026°57'0 0.0
2016-Aug-25 22:32N 60°29' E 026°57'0 0.0
2016-Aug-25 21:32N 60°29' E 026°57'0 0.0
2016-Aug-25 20:32N 60°29' E 026°57'0 0.0
2016-Aug-25 19:32N 60°29' E 026°57'0 0.0
2016-Aug-25 18:32N 60°29' E 026°57'0 0.0
2016-Aug-25 17:32N 60°29' E 026°57'0 0.0
2016-Aug-25 16:32N 60°29' E 026°57'0 0.0
2016-Aug-25 15:32N 60°29' E 026°57'0 0.0
2016-Aug-25 14:32N 60°29' E 026°57'0 0.0
2016-Aug-25 13:32N 60°29' E 026°57'0 0.0
2016-Aug-25 12:32N 60°29' E 026°57'0 0.0
2016-Aug-25 11:32N 60°29' E 026°57'0 0.0
2016-Aug-25 10:32N 60°29' E 026°57'0 0.0
2016-Aug-25 09:32N 60°29' E 026°57'0 0.0
2016-Aug-25 08:32N 60°29' E 026°57'0 0.0
2016-Aug-25 07:32N 60°29' E 026°57'0 0.0
2016-Aug-25 06:32N 60°29' E 026°57'0 0.0
2016-Aug-25 04:32N 60°29' E 026°57'0 0.0
2016-Aug-25 03:32N 60°29' E 026°57'0 0.0
2016-Aug-25 02:32N 60°29' E 026°57'0 0.0
2016-Aug-25 01:32N 60°29' E 026°57'0 0.0
2016-Aug-25 00:32N 60°29' E 026°57'0 0.0
2016-Aug-24 23:32N 60°29' E 026°57'0 0.0
2016-Aug-24 22:32N 60°29' E 026°57'0 0.0
2016-Aug-24 21:32N 60°29' E 026°57'0 0.0
2016-Aug-24 20:32N 60°29' E 026°57'0 0.0
2016-Aug-24 19:32N 60°29' E 026°57'4 3.9
2016-Aug-24 18:34N 60°25' E 026°56'1919.1
2016-Aug-24 17:33N 60°14' E 026°25'4 3.6
2016-Aug-24 16:32N 60°11' E 026°20'0 0.0
2016-Aug-24 15:32N 60°11' E 026°20'0 0.0
2016-Aug-24 14:32N 60°11' E 026°20'0 0.0
2016-Aug-24 13:29N 60°11' E 026°20'0 0.0
2016-Aug-24 12:32N 60°11' E 026°20'0 0.0
2016-Aug-24 11:32N 60°11' E 026°20'0 0.0
2016-Aug-24 10:32N 60°11' E 026°20'0 0.0
2016-Aug-24 09:32N 60°11' E 026°20'0 0.0
2016-Aug-24 08:32N 60°11' E 026°20'0 0.0
2016-Aug-24 07:32N 60°11' E 026°20'0 0.0
2016-Aug-24 06:32N 60°11' E 026°20'0 0.0
2016-Aug-24 04:32N 60°11' E 026°20'0 0.0
2016-Aug-24 03:32N 60°11' E 026°20'0 0.0
2016-Aug-24 02:32N 60°11' E 026°20'0 0.0
2016-Aug-24 01:34N 60°11' E 026°20'0 0.0
2016-Aug-24 00:34N 60°11' E 026°20'0 0.0
2016-Aug-23 23:33N 60°11' E 026°20'0 0.0
2016-Aug-23 22:33N 60°11' E 026°20'0 0.0
2016-Aug-23 21:34N 60°11' E 026°20'0 0.0
2016-Aug-23 20:34N 60°11' E 026°20'0 0.0
2016-Aug-23 19:33N 60°11' E 026°20'0 0.0
2016-Aug-23 18:33N 60°11' E 026°20'0 0.2
2016-Aug-23 17:34N 60°11' E 026°21'1010.4
2016-Aug-23 16:33N 60°03' E 026°32'1716.7
2016-Aug-23 15:33N 59°60' E 027°05'1916.7
2016-Aug-23 14:25N 60°10' E 027°37'1615.2
2016-Aug-23 13:19N 60°09' E 028°10'1215.9
2016-Aug-23 12:34N 60°04' E 028°32'1616.3
2016-Aug-23 11:33N 60°03' E 029°05'1613.2
2016-Aug-23 10:20N 60°00' E 029°37'911.2
2016-Aug-23 09:33N 59°57' E 029°53'1010.2
2016-Aug-23 08:33N 59°53' E 030°12'1 0.9
2016-Aug-23 07:33N 59°54' E 030°14'0 0.0
2016-Aug-23 06:33N 59°54' E 030°14'0 0.0
2016-Aug-23 05:33N 59°54' E 030°14'0 0.0
2016-Aug-23 04:33N 59°54' E 030°14'0 0.0
2016-Aug-23 03:33N 59°54' E 030°14'0 0.0
2016-Aug-23 02:33N 59°54' E 030°14'0 0.0
2016-Aug-23 01:33N 59°54' E 030°14'0 0.0
2016-Aug-23 00:33N 59°54' E 030°14'0 0.0
2016-Aug-22 23:33N 59°54' E 030°14'0 0.0
2016-Aug-22 22:33N 59°54' E 030°14'0 0.0
2016-Aug-22 21:33N 59°54' E 030°14'0 0.0
2016-Aug-22 20:33N 59°54' E 030°14'0 0.0
2016-Aug-22 19:30N 59°54' E 030°14'0 0.0
2016-Aug-22 18:33N 59°54' E 030°14'0 0.0
2016-Aug-22 17:24N 59°54' E 030°14'0 0.0
2016-Aug-22 16:33N 59°54' E 030°14'0 0.0
2016-Aug-22 15:33N 59°54' E 030°14'3 2.7
2016-Aug-22 14:33N 59°54' E 030°08'1010.1
2016-Aug-22 13:33N 59°57' E 029°50'1211.3
2016-Aug-22 12:32N 60°01' E 029°28'8 7.8
2016-Aug-22 11:32N 60°01' E 029°12'7 7.0
2016-Aug-22 10:33N 60°02' E 028°59'10 9.9
2016-Aug-22 09:33N 60°02' E 028°39'1010.1
2016-Aug-22 08:33N 60°05' E 028°20'1313.4
2016-Aug-22 07:33N 60°10' E 027°54'1312.8
2016-Aug-22 06:33N 60°06' E 027°30'1414.3
2016-Aug-22 05:33N 59°58' E 027°06'1413.7
2016-Aug-22 04:33N 59°60' E 026°38'  

Dump ship's entire track history